Time;durP1;ratioP1;P1;durP2;ratioP2;P2;SDS_P1;SDS_P2;PMS_P1;PMS_P2;Temp;Humidity;BMP_temperature;BMP_pressure;BME280_temperature;BME280_humidity;BME280_pressure;Samples;Min_cycle;Max_cycle;Signal;HPM_P1;HPM_P2
2021/10/21 00:01:43;;;;;;;5.57;2.28;;;;;;;15.35;80.31;95155.00;5000552;28;20210;-70
2021/10/21 00:04:10;;;;;;;4.70;2.22;;;;;;;15.51;80.09;95140.19;4999474;28;20209;-70
2021/10/21 00:06:37;;;;;;;3.78;1.98;;;;;;;15.54;80.84;95127.28;4999206;28;20226;-70
2021/10/21 00:09:04;;;;;;;6.38;2.50;;;;;;;15.61;81.21;95111.22;5000981;28;20199;-71
2021/10/21 00:11:31;;;;;;;4.70;2.25;;;;;;;15.53;81.74;95108.91;4999583;28;20210;-70
2021/10/21 00:13:58;;;;;;;5.30;2.10;;;;;;;15.63;81.50;95106.44;5000104;28;20658;-71
2021/10/21 00:16:24;;;;;;;8.13;2.20;;;;;;;15.57;81.28;95094.13;4998731;28;20222;-71
2021/10/21 00:18:51;;;;;;;4.97;2.45;;;;;;;15.62;81.59;95110.19;4999741;28;21224;-71
2021/10/21 00:21:19;;;;;;;3.22;2.03;;;;;;;15.86;80.39;95129.25;4999997;28;20214;-71
2021/10/21 00:23:45;;;;;;;3.95;1.98;;;;;;;15.44;83.21;95134.19;5000322;28;20225;-71
2021/10/21 00:26:12;;;;;;;4.35;2.47;;;;;;;15.67;82.64;95147.44;4995974;28;20276;-70
2021/10/21 00:28:39;;;;;;;4.50;2.08;;;;;;;15.19;83.81;95125.66;4999546;28;20210;-71
2021/10/21 00:31:06;;;;;;;3.25;2.28;;;;;;;15.44;83.06;95107.66;4999453;28;20218;-71
2021/10/21 00:33:33;;;;;;;4.57;2.42;;;;;;;15.44;82.95;95095.19;4999173;28;20667;-70
2021/10/21 00:35:59;;;;;;;4.40;2.42;;;;;;;15.35;83.45;95082.50;4998686;28;20222;-71
2021/10/21 00:38:27;;;;;;;5.18;2.45;;;;;;;15.31;83.75;95068.91;4999488;28;20218;-70
2021/10/21 00:40:54;;;;;;;3.58;2.03;;;;;;;15.07;82.93;95069.16;5000030;28;20210;-70
2021/10/21 00:43:20;;;;;;;4.47;2.33;;;;;;;15.26;82.80;95070.63;4999172;28;20209;-69
2021/10/21 00:45:47;;;;;;;3.78;2.10;;;;;;;15.28;83.37;95074.66;4998238;28;20234;-70
2021/10/21 00:48:13;;;;;;;7.18;3.35;;;;;;;15.19;83.42;95064.63;5000015;28;20559;-71
2021/10/21 00:50:41;;;;;;;3.17;2.00;;;;;;;14.84;84.81;95066.50;4997973;28;21052;-70
2021/10/21 00:53:09;;;;;;;4.75;2.70;;;;;;;15.17;85.11;95071.19;4999065;28;20211;-70
2021/10/21 00:55:37;;;;;;;4.53;2.22;;;;;;;15.43;84.98;95074.19;4998938;28;20312;-70
2021/10/21 00:58:05;;;;;;;6.47;2.50;;;;;;;14.86;84.95;95093.59;4999734;28;20209;-71
2021/10/21 01:00:32;;;;;;;4.88;2.40;;;;;;;14.99;86.65;95095.22;4998936;28;20211;-70
2021/10/21 01:02:59;;;;;;;5.88;2.63;;;;;;;15.07;86.47;95081.59;4999905;28;20203;-70
2021/10/21 01:05:25;;;;;;;4.47;2.10;;;;;;;15.04;86.38;95082.84;4998690;28;20778;-70
2021/10/21 01:07:52;;;;;;;4.78;2.35;;;;;;;15.05;87.50;95073.88;4997802;28;20671;-71
2021/10/21 01:10:19;;;;;;;5.78;2.10;;;;;;;15.01;86.75;95077.22;4999745;28;20203;-71
2021/10/21 01:12:47;;;;;;;3.08;1.73;;;;;;;15.23;85.58;95089.69;4999372;28;20207;-71
2021/10/21 01:15:18;;;;;;;5.00;2.75;;;;;;;15.25;84.87;95079.66;4998397;28;20246;-70
2021/10/21 01:17:45;;;;;;;5.70;2.65;;;;;;;15.05;84.16;95083.69;4998538;28;20242;-71
2021/10/21 01:20:13;;;;;;;3.95;2.42;;;;;;;15.26;86.59;95081.25;4999078;28;20210;-70
2021/10/21 01:22:40;;;;;;;5.45;2.50;;;;;;;15.18;85.42;95081.56;4998474;28;20210;-70
2021/10/21 01:25:07;;;;;;;7.10;2.47;;;;;;;15.04;88.32;95090.81;4998961;28;20699;-70
2021/10/21 01:27:34;;;;;;;3.25;1.88;;;;;;;14.86;88.71;95098.88;4994873;28;20206;-71
2021/10/21 01:30:00;;;;;;;5.45;2.00;;;;;;;15.00;87.73;95086.22;4998503;28;20245;-70
2021/10/21 01:32:28;;;;;;;7.22;2.72;;;;;;;15.16;86.92;95077.53;4998747;28;20203;-70
2021/10/21 01:34:54;;;;;;;4.15;2.10;;;;;;;15.15;88.66;95066.13;4998399;28;20276;-70
2021/10/21 01:37:22;;;;;;;5.63;2.45;;;;;;;15.23;90.22;95059.69;4997466;28;20932;-70
2021/10/21 01:39:49;;;;;;;4.80;2.38;;;;;;;15.03;91.02;95070.66;4998188;28;20296;-70
2021/10/21 01:42:15;;;;;;;4.55;2.10;;;;;;;15.13;90.49;95070.06;4998312;28;20766;-70
2021/10/21 01:44:42;;;;;;;5.05;2.72;;;;;;;15.25;91.42;95074.34;4998068;28;20753;-71
2021/10/21 01:47:08;;;;;;;5.65;3.00;;;;;;;15.08;92.17;95062.78;4997912;28;20709;-70
2021/10/21 01:49:35;;;;;;;3.40;2.22;;;;;;;15.09;92.27;95063.59;4998321;28;20206;-71
2021/10/21 01:52:01;;;;;;;4.53;2.47;;;;;;;14.90;93.27;95054.94;4998643;28;20217;-70
2021/10/21 01:54:29;;;;;;;4.57;2.67;;;;;;;15.21;92.82;95045.84;4998172;28;20221;-71
2021/10/21 01:56:56;;;;;;;6.15;3.30;;;;;;;15.03;93.27;95022.91;4997191;28;20219;-71
2021/10/21 01:59:22;;;;;;;7.30;3.28;;;;;;;15.03;93.67;95012.28;4998219;28;20222;-70
2021/10/21 02:01:49;;;;;;;5.85;2.83;;;;;;;15.06;93.92;95000.38;4997914;28;20210;-71
2021/10/21 02:04:15;;;;;;;5.32;2.70;;;;;;;14.87;95.98;94994.41;4997416;28;20210;-70
2021/10/21 02:06:42;;;;;;;7.60;3.38;;;;;;;14.93;96.35;94980.22;4994377;28;20230;-71
2021/10/21 02:09:08;;;;;;;9.43;2.92;;;;;;;14.95;96.94;94977.34;4998400;28;20207;-70
2021/10/21 02:11:36;;;;;;;10.40;3.63;;;;;;;15.08;98.14;94967.25;4997230;28;20222;-70
2021/10/21 02:14:03;;;;;;;10.10;3.22;;;;;;;14.99;98.15;94989.09;4997223;28;20206;-70
2021/10/21 02:16:29;;;;;;;7.38;3.20;;;;;;;15.05;97.13;94985.53;4997286;28;20244;-70
2021/10/21 02:18:56;;;;;;;7.10;3.28;;;;;;;15.12;96.97;94994.97;4997459;28;20198;-70
2021/10/21 02:21:22;;;;;;;6.30;3.08;;;;;;;15.14;97.55;94997.38;4998295;28;20217;-70
2021/10/21 02:23:49;;;;;;;9.20;3.45;;;;;;;15.06;98.02;94995.91;4998783;28;20597;-71
2021/10/21 02:26:15;;;;;;;9.40;3.92;;;;;;;15.02;98.90;94989.44;4993758;28;20770;-70
2021/10/21 02:28:43;;;;;;;8.35;4.00;;;;;;;15.18;98.58;94975.44;4997803;28;20217;-71
2021/10/21 02:31:09;;;;;;;7.60;3.67;;;;;;;15.09;98.42;94973.41;4998987;28;20206;-70
2021/10/21 02:33:36;;;;;;;5.50;2.97;;;;;;;15.16;98.46;94984.66;4997239;28;20588;-71
2021/10/21 02:36:02;;;;;;;7.22;3.53;;;;;;;15.09;98.92;94968.88;4996573;28;20239;-70
2021/10/21 02:38:29;;;;;;;7.38;3.63;;;;;;;15.04;98.57;94966.13;4997801;28;20206;-70
2021/10/21 02:40:57;;;;;;;8.00;3.58;;;;;;;15.17;98.82;94981.78;4997112;28;20695;-70
2021/10/21 02:43:24;;;;;;;6.00;3.08;;;;;;;15.10;98.07;94985.63;4997509;28;20210;-70
2021/10/21 02:45:52;;;;;;;8.13;3.65;;;;;;;15.37;98.56;94983.00;4996756;28;20232;-71
2021/10/21 02:48:18;;;;;;;5.68;2.97;;;;;;;14.91;99.53;94998.22;4997010;28;20217;-70
2021/10/21 02:50:45;;;;;;;8.00;3.30;;;;;;;14.95;98.42;94987.97;4996983;28;21029;-70
2021/10/21 02:53:11;;;;;;;5.53;3.00;;;;;;;14.98;99.16;94976.88;4997865;28;20225;-69
2021/10/21 02:55:38;;;;;;;3.65;2.35;;;;;;;14.73;99.36;95000.22;4996517;28;20226;-71
2021/10/21 02:58:04;;;;;;;4.63;2.53;;;;;;;14.68;99.65;94992.94;4996784;28;20206;-69
2021/10/21 03:00:30;;;;;;;6.32;2.80;;;;;;;14.84;100.00;95002.03;4997154;28;20684;-70
2021/10/21 03:02:58;;;;;;;3.80;1.77;;;;;;;14.98;100.00;95019.31;4997619;28;20658;-70
2021/10/21 03:05:25;;;;;;;6.32;3.13;;;;;;;15.03;100.00;95009.63;4996643;28;20226;-70
2021/10/21 03:07:51;;;;;;;4.85;2.60;;;;;;;14.99;100.00;95031.53;4997253;28;20214;-71
2021/10/21 03:10:18;;;;;;;8.43;3.20;;;;;;;14.96;100.00;95058.53;4997220;28;20304;-68
2021/10/21 03:12:45;;;;;;;5.25;3.00;;;;;;;14.96;100.00;95056.69;4996855;28;20207;-69
2021/10/21 03:15:11;;;;;;;7.15;2.50;;;;;;;14.88;100.00;95024.38;4996319;28;20233;-69
2021/10/21 03:17:41;;;;;;;9.38;3.78;;;;;;;14.94;100.00;95003.06;4996474;28;20213;-69
2021/10/21 03:20:12;;;;;;;6.47;2.97;;;;;;;15.15;100.00;95060.00;4996665;28;20214;-70
2021/10/21 03:22:38;;;;;;;7.63;3.88;;;;;;;14.70;100.00;95028.00;4996748;28;20667;-70
2021/10/21 03:25:07;;;;;;;7.53;3.45;;;;;;;15.04;100.00;94997.97;4997332;28;20718;-70
2021/10/21 03:27:33;;;;;;;10.00;4.32;;;;;;;14.70;100.00;95008.59;4993395;28;20249;-70
2021/10/21 03:30:00;;;;;;;7.30;3.73;;;;;;;14.80;100.00;94993.75;4996359;28;20221;-70
2021/10/21 03:32:26;;;;;;;9.23;4.40;;;;;;;14.76;100.00;94991.78;4997295;28;20230;-70
2021/10/21 03:34:53;;;;;;;11.60;4.50;;;;;;;14.77;100.00;95002.16;4997539;28;20211;-71
2021/10/21 03:37:21;;;;;;;8.63;4.13;;;;;;;15.00;100.00;94991.50;4995749;28;20194;-70
2021/10/21 03:39:49;;;;;;;12.18;4.57;;;;;;;14.80;100.00;94991.09;4995939;28;21236;-70
2021/10/21 03:42:16;;;;;;;11.70;4.50;;;;;;;14.89;100.00;94981.75;4996586;28;20273;-69
2021/10/21 03:44:43;;;;;;;17.05;5.10;;;;;;;14.70;100.00;94990.88;4996971;28;20215;-70
2021/10/21 03:47:09;;;;;;;11.77;4.60;;;;;;;14.56;100.00;94988.69;4995663;28;20737;-70
2021/10/21 03:49:36;;;;;;;10.00;4.60;;;;;;;14.76;100.00;94994.44;4996685;28;20202;-70
2021/10/21 03:52:04;;;;;;;12.50;5.50;;;;;;;14.75;100.00;94993.63;4996778;28;20375;-70
2021/10/21 03:54:32;;;;;;;13.95;4.35;;;;;;;15.02;100.00;94984.13;4996004;28;20219;-70
2021/10/21 03:56:59;;;;;;;11.82;5.38;;;;;;;14.78;100.00;94979.91;4995630;28;20695;-70
2021/10/21 03:59:25;;;;;;;11.43;4.90;;;;;;;14.80;100.00;94980.50;4996615;28;20225;-71
2021/10/21 04:01:53;;;;;;;9.63;4.40;;;;;;;14.71;100.00;94976.59;4996118;28;21347;-70
2021/10/21 04:04:19;;;;;;;11.27;4.68;;;;;;;15.01;100.00;94982.53;4997120;28;20221;-71
2021/10/21 04:06:46;;;;;;;9.27;4.03;;;;;;;15.02;100.00;94968.22;4995981;28;20242;-70
2021/10/21 04:09:12;;;;;;;12.48;4.93;;;;;;;15.07;100.00;94980.78;4996044;28;20199;-69
2021/10/21 04:11:40;;;;;;;7.28;3.92;;;;;;;15.19;100.00;94992.19;4996678;28;20210;-69
2021/10/21 04:14:07;;;;;;;9.70;4.38;;;;;;;15.18;100.00;94995.88;4996357;28;20292;-70
2021/10/21 04:16:33;;;;;;;9.40;4.70;;;;;;;15.13;100.00;94993.91;4995688;28;20227;-70
2021/10/21 04:19:00;;;;;;;8.68;4.07;;;;;;;15.08;100.00;94980.53;4996666;28;20199;-70
2021/10/21 04:21:26;;;;;;;9.98;4.22;;;;;;;15.24;100.00;94984.34;4996358;28;20214;-69
2021/10/21 04:23:54;;;;;;;10.02;4.30;;;;;;;15.33;100.00;94959.84;4995801;28;20230;-70
2021/10/21 04:26:21;;;;;;;10.57;4.78;;;;;;;15.28;100.00;94959.75;4995513;28;20234;-70
2021/10/21 04:28:49;;;;;;;9.02;3.92;;;;;;;15.66;100.00;94957.28;5000253;28;20210;-70
2021/10/21 04:31:16;;;;;;;8.73;3.75;;;;;;;15.45;100.00;94963.25;4999849;28;20213;-70
2021/10/21 04:33:43;;;;;;;8.25;3.28;;;;;;;15.48;100.00;94976.06;4999636;28;20198;-69
2021/10/21 04:36:10;;;;;;;6.22;2.58;;;;;;;15.55;100.00;94992.66;4998968;28;20252;-69
2021/10/21 04:38:36;;;;;;;7.22;3.25;;;;;;;15.70;100.00;94992.94;4999718;28;20225;-70
2021/10/21 04:41:03;;;;;;;7.55;3.22;;;;;;;15.67;100.00;95012.00;5000377;28;20199;-69
2021/10/21 04:43:29;;;;;;;5.13;3.10;;;;;;;15.65;100.00;95038.00;5000404;28;20203;-70
2021/10/21 04:45:57;;;;;;;5.75;3.33;;;;;;;15.93;100.00;95047.56;4998452;28;20238;-69
2021/10/21 04:48:24;;;;;;;5.85;2.25;;;;;;;15.63;100.00;95056.00;4999232;28;20578;-70
2021/10/21 04:50:50;;;;;;;3.80;1.73;;;;;;;15.44;100.00;95039.44;4999772;28;20590;-68
2021/10/21 04:53:18;;;;;;;1.77;1.08;;;;;;;15.28;100.00;95052.63;4999412;28;20203;-71
2021/10/21 04:55:44;;;;;;;3.00;1.60;;;;;;;15.38;100.00;95085.50;4997871;28;20703;-70
2021/10/21 04:58:11;;;;;;;2.38;1.17;;;;;;;15.27;100.00;95064.28;4999450;28;20198;-69
2021/10/21 05:00:37;;;;;;;4.07;2.10;;;;;;;15.39;100.00;95075.72;4999463;28;20202;-70
2021/10/21 05:03:09;;;;;;;2.45;1.52;;;;;;;15.52;99.60;95075.44;4999037;28;20261;-69
2021/10/21 05:05:36;;;;;;;1.90;1.25;;;;;;;15.34;100.00;95067.63;4998647;28;20230;-69
2021/10/21 05:08:03;;;;;;;1.55;1.00;;;;;;;15.28;99.27;95053.44;4998951;28;20222;-69
2021/10/21 05:10:30;;;;;;;2.58;1.75;;;;;;;15.23;98.53;95057.84;4998878;28;20206;-70
2021/10/21 05:12:56;;;;;;;1.42;0.80;;;;;;;15.21;93.26;95073.19;4999179;28;20203;-70
2021/10/21 05:15:24;;;;;;;2.75;1.25;;;;;;;15.25;89.04;95063.72;4998737;28;20218;-70
2021/10/21 05:17:51;;;;;;;1.83;0.90;;;;;;;15.59;86.87;95076.09;4998662;28;20575;-70
2021/10/21 05:20:19;;;;;;;1.25;0.95;;;;;;;15.57;87.05;95083.53;4999145;28;20572;-70
2021/10/21 05:22:46;;;;;;;1.73;0.95;;;;;;;15.33;87.96;95092.56;4999131;28;20203;-69
2021/10/21 05:25:12;;;;;;;1.25;0.80;;;;;;;15.40;85.42;95094.06;4998571;28;20269;-70
2021/10/21 05:27:39;;;;;;;2.38;0.90;;;;;;;15.29;84.88;95099.38;4994606;28;20233;-71
2021/10/21 05:30:07;;;;;;;2.17;1.00;;;;;;;15.37;85.62;95093.72;4998942;28;20213;-70
2021/10/21 05:32:34;;;;;;;1.33;0.60;;;;;;;15.13;82.18;95075.38;4998424;28;20206;-70
2021/10/21 05:35:01;;;;;;;1.70;0.77;;;;;;;15.08;82.56;95115.84;4998495;28;20206;-70
2021/10/21 05:37:29;;;;;;;5.68;0.60;;;;;;;15.16;82.34;95118.16;4996449;28;20198;-70
2021/10/21 05:39:55;;;;;;;0.95;0.60;;;;;;;14.91;81.02;95152.06;4998630;28;20206;-69
2021/10/21 05:42:22;;;;;;;0.90;0.30;;;;;;;15.06;76.72;95149.78;4998074;28;20213;-71
2021/10/21 05:44:49;;;;;;;2.05;0.35;;;;;;;14.98;76.37;95142.16;4998415;28;20698;-70
2021/10/21 05:47:16;;;;;;;1.83;1.30;;;;;;;14.74;73.58;95140.50;4997070;28;20218;-69
2021/10/21 05:49:42;;;;;;;4.10;0.82;;;;;;;14.90;74.08;95161.03;4998151;28;20210;-71
2021/10/21 05:52:09;;;;;;;2.08;0.50;;;;;;;14.93;72.40;95175.69;4998216;28;20671;-70
2021/10/21 05:54:37;;;;;;;2.85;0.50;;;;;;;15.00;72.15;95165.81;4997862;28;21076;-70
2021/10/21 05:57:04;;;;;;;1.13;0.60;;;;;;;14.72;72.54;95163.78;4997157;28;20225;-70
2021/10/21 05:59:30;;;;;;;3.67;0.82;;;;;;;14.72;72.84;95169.09;4998445;28;20952;-70
2021/10/21 06:01:57;;;;;;;2.05;0.63;;;;;;;14.60;71.70;95172.78;4997880;28;20219;-69
2021/10/21 06:04:23;;;;;;;5.07;0.47;;;;;;;14.63;72.21;95179.47;4998348;28;20213;-70
2021/10/21 06:06:50;;;;;;;1.00;0.60;;;;;;;14.51;71.76;95183.91;4996973;28;20230;-71
2021/10/21 06:09:20;;;;;;;4.32;0.52;;;;;;;14.55;73.30;95193.03;4998145;28;20599;-70
2021/10/21 06:11:50;;;;;;;2.47;0.73;;;;;;;14.74;72.75;95200.72;4997896;28;20202;-69
2021/10/21 06:14:17;;;;;;;4.93;0.77;;;;;;;14.39;73.87;95198.97;4997987;28;20682;-70
2021/10/21 06:16:46;;;;;;;2.40;0.70;;;;;;;14.52;73.38;95214.69;4997028;28;20950;-70
2021/10/21 06:19:13;;;;;;;0.95;0.57;;;;;;;14.29;73.88;95225.19;4998308;28;20660;-70
2021/10/21 06:21:40;;;;;;;3.03;0.80;;;;;;;14.37;73.72;95227.53;4997431;28;20202;-69
2021/10/21 06:24:07;;;;;;;3.53;0.47;;;;;;;14.31;74.55;95231.91;4997637;28;20207;-70
2021/10/21 06:26:33;;;;;;;1.02;0.65;;;;;;;14.23;74.83;95232.22;4993620;28;20227;-70
2021/10/21 06:29:01;;;;;;;0.88;0.35;;;;;;;14.35;75.81;95248.16;4997767;28;20253;-69
2021/10/21 06:31:28;;;;;;;1.13;0.60;;;;;;;14.50;74.67;95256.50;4997535;28;20195;-69
2021/10/21 06:33:54;;;;;;;3.28;0.88;;;;;;;14.39;75.49;95266.03;4997837;28;20202;-70
2021/10/21 06:36:21;;;;;;;0.83;0.40;;;;;;;14.26;75.72;95257.44;4996944;28;20230;-70
2021/10/21 06:38:48;;;;;;;2.90;0.57;;;;;;;14.32;76.26;95267.16;4996917;28;20214;-70
2021/10/21 06:41:14;;;;;;;3.08;0.50;;;;;;;14.51;75.86;95287.28;4997457;28;20202;-69
2021/10/21 06:43:41;;;;;;;5.45;0.60;;;;;;;14.42;75.67;95284.16;4997892;28;20241;-71
2021/10/21 06:46:09;;;;;;;2.22;0.60;;;;;;;14.40;76.95;95290.72;4996753;28;20223;-70
2021/10/21 06:48:36;;;;;;;2.22;0.60;;;;;;;14.20;76.08;95300.72;4996728;28;20230;-69
2021/10/21 06:51:03;;;;;;;0.43;0.30;;;;;;;14.27;75.18;95288.22;4997456;28;20195;-70
2021/10/21 06:53:30;;;;;;;9.00;1.35;;;;;;;14.32;74.54;95306.91;4997449;28;20210;-70
2021/10/21 06:55:57;;;;;;;1.60;0.47;;;;;;;14.26;74.53;95313.09;4996186;28;21044;-69
2021/10/21 06:58:23;;;;;;;4.13;0.50;;;;;;;14.34;74.23;95318.09;4997509;28;20202;-70
2021/10/21 07:00:50;;;;;;;2.42;0.52;;;;;;;14.29;71.78;95331.19;4997448;28;20202;-70
2021/10/21 07:03:18;;;;;;;2.83;0.52;;;;;;;14.54;72.53;95339.88;4997147;28;20994;-70
2021/10/21 07:05:45;;;;;;;6.40;0.77;;;;;;;14.33;73.59;95349.09;4996369;28;20230;-70
2021/10/21 07:08:13;;;;;;;2.53;0.60;;;;;;;14.38;73.37;95356.38;4996887;28;20237;-70
2021/10/21 07:10:40;;;;;;;4.38;0.60;;;;;;;14.42;73.75;95357.53;4996900;28;20209;-71
2021/10/21 07:13:07;;;;;;;7.90;0.93;;;;;;;14.41;73.65;95366.53;4996975;28;20203;-69
2021/10/21 07:15:34;;;;;;;4.10;0.90;;;;;;;14.32;73.71;95366.03;4996880;28;20276;-69
2021/10/21 07:18:01;;;;;;;9.50;1.00;;;;;;;14.38;73.90;95374.94;4996944;28;20560;-69
2021/10/21 07:20:29;;;;;;;4.77;0.83;;;;;;;14.36;73.78;95382.31;4997070;28;20213;-70
2021/10/21 07:22:56;;;;;;;8.38;1.67;;;;;;;14.27;72.34;95386.28;4996984;28;20447;-69
2021/10/21 07:25:23;;;;;;;6.13;0.60;;;;;;;14.20;72.37;95390.81;4996064;28;20223;-69
2021/10/21 07:27:50;;;;;;;0.53;0.50;;;;;;;14.22;71.76;95409.97;4993831;28;20323;-70
2021/10/21 07:30:17;;;;;;;4.73;1.23;;;;;;;14.26;73.39;95413.78;4996712;28;21146;-69
2021/10/21 07:32:44;;;;;;;1.77;0.67;;;;;;;14.28;71.21;95411.72;4996616;28;20226;-70
2021/10/21 07:35:11;;;;;;;8.03;1.00;;;;;;;14.42;70.93;95426.47;4996657;28;20230;-70
2021/10/21 07:37:39;;;;;;;2.93;0.93;;;;;;;14.38;71.19;95426.09;4996133;28;20202;-70
2021/10/21 07:40:08;;;;;;;1.92;0.82;;;;;;;14.57;71.66;95430.38;4997209;28;20202;-70
2021/10/21 07:42:35;;;;;;;2.30;0.70;;;;;;;14.41;70.66;95412.41;4996338;28;20217;-69
2021/10/21 07:45:01;;;;;;;2.50;0.55;;;;;;;14.53;69.62;95436.34;4996857;28;20203;-69
2021/10/21 07:47:28;;;;;;;5.88;0.77;;;;;;;14.70;69.32;95433.72;4996363;28;20226;-70
2021/10/21 07:49:55;;;;;;;3.83;0.70;;;;;;;14.40;68.19;95447.09;4996245;28;20211;-70
2021/10/21 07:52:21;;;;;;;8.02;0.93;;;;;;;14.65;68.50;95454.75;4996387;28;20210;-70
2021/10/21 07:54:49;;;;;;;3.00;0.60;;;;;;;14.86;67.92;95448.22;4997788;28;20209;-69
2021/10/21 07:57:18;;;;;;;1.20;0.50;;;;;;;14.52;67.64;95477.13;4996575;28;20198;-70
2021/10/21 07:59:44;;;;;;;4.38;0.68;;;;;;;14.70;67.29;95486.75;4996625;28;20223;-70
2021/10/21 08:02:11;;;;;;;3.13;0.70;;;;;;;14.72;67.25;95491.81;5000342;28;20749;-69
2021/10/21 08:04:37;;;;;;;2.60;0.57;;;;;;;14.53;67.67;95495.47;5000994;28;20213;-70
2021/10/21 08:07:04;;;;;;;3.25;0.60;;;;;;;14.73;67.21;95509.34;4999153;28;20737;-70
2021/10/21 08:09:31;;;;;;;6.05;0.80;;;;;;;14.90;67.12;95526.31;5000136;28;20210;-70
2021/10/21 08:12:01;;;;;;;4.10;0.68;;;;;;;15.04;67.23;95511.88;5000320;28;20206;-70
2021/10/21 08:14:28;;;;;;;1.00;0.52;;;;;;;14.88;65.92;95541.63;4999890;28;20203;-70
2021/10/21 08:16:56;;;;;;;3.35;0.65;;;;;;;14.87;66.26;95542.69;4999098;28;20227;-71
2021/10/21 08:19:23;;;;;;;1.73;0.60;;;;;;;14.78;66.00;95552.75;4999960;28;20206;-71
2021/10/21 08:21:49;;;;;;;5.05;0.82;;;;;;;14.88;66.36;95539.81;4999433;28;20207;-70
2021/10/21 08:24:16;;;;;;;3.70;0.57;;;;;;;14.78;65.11;95542.13;5000885;28;20199;-71
2021/10/21 08:26:43;;;;;;;5.05;0.73;;;;;;;14.93;64.97;95557.69;4996289;28;20230;-70
2021/10/21 08:29:11;;;;;;;3.95;0.77;;;;;;;15.21;64.39;95540.28;4999970;28;20219;-70
2021/10/21 08:31:37;;;;;;;2.63;0.45;;;;;;;15.19;64.64;95574.16;4999541;28;20626;-71
2021/10/21 08:34:04;;;;;;;5.32;1.05;;;;;;;15.22;64.70;95563.13;4999775;28;20293;-71
2021/10/21 08:36:31;;;;;;;1.67;0.57;;;;;;;15.41;64.18;95575.38;4998551;28;20230;-70
2021/10/21 08:38:57;;;;;;;2.80;0.60;;;;;;;15.54;63.73;95569.88;5000057;28;20206;-71
2021/10/21 08:41:26;;;;;;;5.35;0.75;;;;;;;15.65;64.32;95569.94;4999342;28;20205;-70
2021/10/21 08:43:52;;;;;;;5.20;0.57;;;;;;;15.83;62.62;95571.78;4999785;28;20208;-71
2021/10/21 08:46:24;;;;;;;5.60;0.80;;;;;;;16.04;62.45;95577.41;4998901;28;20222;-70
2021/10/21 08:48:52;;;;;;;7.80;1.00;;;;;;;15.94;62.59;95595.72;4999235;28;20226;-70
2021/10/21 08:51:19;;;;;;;1.08;0.40;;;;;;;16.19;61.61;95588.41;4999668;28;20214;-71
2021/10/21 08:53:46;;;;;;;4.38;0.73;;;;;;;16.06;61.21;95589.44;4999110;28;20211;-70
2021/10/21 08:56:13;;;;;;;2.70;0.50;;;;;;;15.99;61.38;95599.34;4998610;28;20337;-70
2021/10/21 08:58:39;;;;;;;4.93;0.60;;;;;;;16.04;62.96;95602.13;4999716;28;20203;-71
2021/10/21 09:01:08;;;;;;;7.30;0.77;;;;;;;15.79;61.04;95608.59;4999312;28;20206;-71
2021/10/21 09:03:48;;;;;;;2.17;0.68;;;;;;;16.25;60.77;95606.94;4999280;28;20974;-70
2021/10/21 09:06:27;;;;;;;1.00;0.50;;;;;;;16.23;61.68;95617.00;4998303;28;20226;-70
2021/10/21 09:08:54;;;;;;;15.30;1.10;;;;;;;15.96;60.95;95621.06;4998970;28;20249;-71
2021/10/21 09:11:21;;;;;;;2.67;0.50;;;;;;;15.96;59.75;95625.53;4997770;28;20583;-71
2021/10/21 09:13:49;;;;;;;1.73;0.77;;;;;;;15.96;60.04;95621.06;4999124;28;20206;-70
2021/10/21 09:16:19;;;;;;;2.03;0.73;;;;;;;16.20;58.67;95632.56;4998077;28;20269;-70
2021/10/21 09:18:49;;;;;;;5.18;0.90;;;;;;;16.24;58.29;95639.06;4999117;28;20210;-70
2021/10/21 09:21:30;;;;;;;3.03;0.90;;;;;;;16.28;57.94;95635.78;4998903;28;20293;-70
2021/10/21 09:23:59;;;;;;;3.08;1.00;;;;;;;16.22;58.36;95636.63;4998693;28;20245;-70
2021/10/21 09:26:25;;;;;;;5.32;0.70;;;;;;;16.22;58.29;95652.59;4994281;28;20219;-70
2021/10/21 09:28:52;;;;;;;4.85;0.60;;;;;;;15.91;55.92;95647.47;4999199;28;20226;-70
2021/10/21 09:31:19;;;;;;;2.30;0.52;;;;;;;15.87;55.51;95640.16;4998635;28;20206;-72
2021/10/21 09:33:50;;;;;;;2.85;1.33;;;;;;;16.49;56.03;95646.69;4998005;28;20842;-71
2021/10/21 09:36:20;;;;;;;6.57;0.50;;;;;;;16.26;54.42;95669.75;4997680;28;20230;-70
2021/10/21 09:38:51;;;;;;;2.80;0.50;;;;;;;16.64;54.85;95667.56;4998116;28;20549;-71
2021/10/21 09:41:18;;;;;;;2.40;0.60;;;;;;;16.37;53.93;95684.94;4998317;28;20953;-71
2021/10/21 09:43:45;;;;;;;1.23;0.52;;;;;;;16.38;54.14;95677.75;4996666;28;20237;-71
2021/10/21 09:46:40;;;;;;;1.27;0.73;;;;;;;16.43;53.73;95692.00;4997940;28;20297;-69
2021/10/21 09:49:29;;;;;;;1.60;0.50;;;;;;;16.48;54.00;95689.47;4998151;28;20241;-71
2021/10/21 09:51:56;;;;;;;4.20;0.60;;;;;;;16.14;55.26;95698.09;4999350;28;20213;-71
2021/10/21 09:54:23;;;;;;;1.92;0.40;;;;;;;16.03;54.38;95696.19;4998020;28;20199;-71
2021/10/21 09:56:58;;;;;;;2.20;0.60;;;;;;;16.17;54.85;95707.47;4996960;28;20226;-71
2021/10/21 09:59:26;;;;;;;0.60;0.50;;;;;;;15.98;55.24;95711.97;4999082;28;20201;-70
2021/10/21 10:01:56;;;;;;;1.42;0.47;;;;;;;16.15;54.61;95705.03;4998380;28;20203;-70
2021/10/21 10:04:26;;;;;;;3.35;0.50;;;;;;;16.19;54.95;95708.88;4997805;28;20209;-70
2021/10/21 10:06:58;;;;;;;2.65;0.60;;;;;;;16.14;55.47;95722.03;4997214;28;20237;-70
2021/10/21 10:09:30;;;;;;;5.28;0.88;;;;;;;16.11;55.15;95729.63;4998424;28;20270;-72
2021/10/21 10:11:57;;;;;;;7.00;0.30;;;;;;;15.94;55.45;95744.53;4997487;28;20334;-70
2021/10/21 10:14:24;;;;;;;3.58;0.57;;;;;;;16.26;55.31;95754.00;4998141;28;20210;-71
2021/10/21 10:16:51;;;;;;;0.82;0.40;;;;;;;16.15;54.90;95747.56;4997207;28;20745;-71
2021/10/21 10:19:18;;;;;;;5.68;0.63;;;;;;;15.95;55.01;95746.19;4997213;28;20685;-71
2021/10/21 10:21:51;;;;;;;4.13;0.80;;;;;;;16.15;52.03;95744.91;4998168;28;20203;-71
2021/10/21 10:24:19;;;;;;;1.48;0.47;;;;;;;16.28;53.50;95751.94;4997182;28;21113;-70
2021/10/21 10:26:47;;;;;;;3.10;1.35;;;;;;;16.11;55.28;95751.69;4994095;28;20223;-71
2021/10/21 10:29:14;;;;;;;2.65;0.85;;;;;;;16.20;55.62;95753.00;4997680;28;20307;-71
2021/10/21 10:31:43;;;;;;;6.93;0.60;;;;;;;16.26;56.09;95756.69;4998002;28;20226;-71
2021/10/21 10:34:30;;;;;;;0.88;0.30;;;;;;;16.11;56.10;95764.97;4997365;28;20206;-71
2021/10/21 10:37:36;;;;;;;1.95;0.70;;;;;;;16.25;55.28;95757.66;4996012;28;20230;-70
2021/10/21 10:40:04;;;;;;;0.65;0.30;;;;;;;15.80;55.10;95768.81;4997778;28;20209;-72
2021/10/21 10:43:01;;;;;;;1.98;0.75;;;;;;;16.23;55.03;95775.69;4997516;28;20217;-71
2021/10/21 10:45:39;;;;;;;2.13;0.40;;;;;;;16.24;54.02;95766.66;4996726;28;20716;-71
2021/10/21 10:48:05;;;;;;;2.15;0.38;;;;;;;15.75;54.58;95781.97;4997195;28;20230;-69
2021/10/21 10:50:55;;;;;;;1.90;0.40;;;;;;;16.25;54.28;95779.75;4996977;28;20218;-71
2021/10/21 10:53:46;;;;;;;0.30;0.30;;;;;;;16.14;53.01;95783.16;4997205;28;20683;-71
2021/10/21 10:56:40;;;;;;;1.23;0.40;;;;;;;16.10;53.00;95797.94;4996372;28;20254;-71
2021/10/21 10:59:21;;;;;;;0.88;0.50;;;;;;;15.85;52.59;95799.81;4996994;28;20207;-68
2021/10/21 11:01:49;;;;;;;9.20;0.63;;;;;;;15.74;53.41;95798.91;4994065;28;20289;-70
2021/10/21 11:04:48;;;;;;;1.10;0.30;;;;;;;15.69;56.24;95820.00;4996661;28;20217;-71
2021/10/21 11:07:15;;;;;;;0.30;0.30;;;;;;;15.00;59.92;95816.63;4985919;28;20198;-71
2021/10/21 11:09:44;;;;;;;2.33;0.40;;;;;;;15.23;61.30;95800.97;4997772;28;20230;-71
2021/10/21 11:12:12;;;;;;;0.35;0.35;;;;;;;14.86;63.09;95809.78;4997303;28;20365;-70
2021/10/21 11:14:42;;;;;;;0.68;0.45;;;;;;;14.78;66.21;95815.34;4995844;28;20215;-70
2021/10/21 11:17:10;;;;;;;1.20;0.50;;;;;;;14.62;68.08;95822.97;4995180;28;20729;-71
2021/10/21 11:19:55;;;;;;;0.52;0.30;;;;;;;14.53;71.73;95837.50;4996685;28;20221;-70
2021/10/21 11:22:41;;;;;;;2.03;0.82;;;;;;;14.16;74.66;95837.44;4996257;28;20293;-69
2021/10/21 11:25:11;;;;;;;1.17;0.60;;;;;;;13.91;76.79;95841.72;4996523;28;20226;-71
2021/10/21 11:27:39;;;;;;;0.80;0.47;;;;;;;13.74;77.85;95837.88;4992819;28;20305;-71
2021/10/21 11:30:12;;;;;;;0.80;0.50;;;;;;;13.77;78.55;95832.19;4995911;28;20222;-70
2021/10/21 11:32:42;;;;;;;2.13;0.63;;;;;;;13.65;80.24;95841.75;4996450;28;20995;-70
2021/10/21 11:35:11;;;;;;;3.20;0.47;;;;;;;13.67;76.68;95842.38;4997742;28;20226;-70
2021/10/21 11:37:43;;;;;;;1.83;0.50;;;;;;;13.89;77.07;95838.47;5000198;28;20322;-71